createdAt,value
2023-09-17T04:02:08.639Z,100.00
2023-09-17T04:06:20.758Z,100.00
2023-09-17T04:10:32.944Z,100.00
2023-09-17T04:14:45.298Z,100.00
2023-09-17T04:18:57.567Z,100.00
2023-09-17T04:23:10.524Z,100.00
2023-09-17T04:27:22.583Z,100.00
2023-09-17T04:31:34.514Z,100.00
2023-09-17T04:35:46.354Z,100.00
2023-09-17T04:39:58.328Z,100.00
2023-09-17T04:44:11.642Z,100.00
2023-09-17T04:48:24.541Z,100.00
2023-09-17T04:52:37.942Z,100.00
2023-09-17T04:56:49.793Z,100.00
2023-09-17T05:01:02.146Z,100.00
2023-09-17T05:05:15.209Z,100.00
2023-09-17T05:09:27.350Z,100.00
2023-09-17T05:13:39.273Z,100.00
2023-09-17T05:17:51.596Z,100.00
2023-09-17T05:22:04.771Z,100.00
2023-09-17T05:26:18.295Z,100.00
2023-09-17T05:30:30.360Z,100.00
2023-09-17T05:34:43.280Z,100.00
2023-09-17T05:38:56.594Z,100.00
2023-09-17T05:43:08.657Z,100.00
2023-09-17T05:47:21.221Z,100.00
2023-09-17T05:51:32.970Z,100.00
2023-09-17T05:55:44.687Z,100.00
2023-09-17T05:59:56.362Z,100.00
2023-09-17T06:04:08.062Z,100.00
2023-09-17T06:08:19.863Z,100.00
2023-09-17T06:12:31.655Z,100.00
2023-09-17T06:16:56.796Z,100.00
2023-09-17T06:21:10.196Z,100.00
2023-09-17T06:25:24.725Z,100.00
2023-09-17T06:29:36.548Z,100.00
2023-09-17T06:33:48.804Z,100.00
2023-09-17T06:38:00.688Z,100.00
2023-09-17T06:42:13.024Z,100.00
2023-09-17T06:46:25.613Z,100.00
2023-09-17T06:50:37.338Z,100.00
2023-09-17T06:54:48.894Z,100.00
2023-09-17T06:59:00.470Z,100.00
2023-09-17T07:03:12.069Z,100.00
2023-09-17T07:07:23.692Z,100.00
2023-09-17T07:11:35.257Z,100.00
2023-09-17T07:15:46.901Z,100.00
2023-09-17T07:19:58.597Z,100.00
2023-09-17T07:24:10.496Z,100.00
2023-09-17T07:28:22.084Z,100.00
2023-09-17T07:32:33.788Z,100.00
2023-09-17T07:36:45.533Z,100.00
2023-09-17T07:40:57.169Z,100.00
2023-09-17T07:45:10.088Z,100.00
2023-09-17T07:49:26.011Z,100.00
2023-09-17T07:53:37.747Z,98.56
2023-09-17T07:57:49.396Z,96.95
2023-09-17T08:02:01.109Z,96.52
2023-09-17T08:06:13.391Z,96.96
2023-09-17T08:10:25.033Z,96.27
2023-09-17T08:14:37.585Z,96.26
2023-09-17T08:18:49.464Z,96.66
2023-09-17T08:23:01.155Z,97.42
2023-09-17T08:27:15.205Z,96.43
2023-09-17T08:31:29.332Z,97.03
2023-09-17T08:35:41.111Z,94.79
2023-09-17T08:39:52.707Z,95.58
2023-09-17T08:44:05.582Z,94.81
2023-09-17T08:48:18.479Z,94.06
2023-09-17T08:52:34.163Z,94.42
2023-09-17T08:56:47.230Z,92.36
2023-09-17T09:01:04.418Z,92.72
2023-09-17T09:05:18.213Z,93.32
2023-09-17T09:09:31.266Z,92.77
2023-09-17T09:13:43.577Z,90.98
2023-09-17T09:17:56.449Z,89.21
2023-09-17T09:22:08.329Z,88.62
2023-09-17T09:26:21.698Z,88.32
2023-09-17T09:30:33.498Z,87.51
2023-09-17T09:34:47.569Z,86.88
2023-09-17T09:38:59.261Z,85.62
2023-09-17T09:43:30.933Z,85.25
2023-09-17T09:47:52.835Z,84.48
2023-09-17T09:52:04.943Z,84.14
2023-09-17T09:56:16.714Z,83.83
2023-09-17T10:00:30.245Z,82.61
2023-09-17T10:04:45.468Z,82.21
2023-09-17T10:08:57.362Z,80.90
2023-09-17T10:13:12.729Z,78.87
2023-09-17T10:17:25.078Z,79.94
2023-09-17T10:21:39.231Z,80.63
2023-09-17T10:25:52.373Z,80.00
2023-09-17T10:30:05.991Z,80.10
2023-09-17T10:34:18.289Z,79.74
2023-09-17T10:38:33.226Z,79.22
2023-09-17T10:42:47.141Z,79.29
2023-09-17T10:47:00.613Z,79.47
2023-09-17T10:51:13.182Z,78.89
2023-09-17T10:55:29.679Z,78.18
2023-09-17T10:59:41.742Z,77.49
2023-09-17T11:03:59.560Z,78.00
2023-09-17T11:08:11.465Z,78.05
2023-09-17T11:12:25.071Z,77.56
2023-09-17T11:16:37.715Z,77.21
2023-09-17T11:21:01.624Z,76.23
2023-09-17T11:25:13.799Z,77.64
2023-09-17T11:29:40.144Z,76.68
2023-09-17T11:33:52.523Z,77.02
2023-09-17T11:38:04.428Z,77.96
2023-09-17T11:42:16.068Z,77.15
2023-09-17T11:46:27.642Z,77.66
2023-09-17T11:50:39.224Z,75.40
2023-09-17T11:54:52.668Z,74.76
2023-09-17T11:59:10.219Z,74.63
2023-09-17T12:03:23.359Z,75.89
2023-09-17T12:07:45.772Z,75.46
2023-09-17T12:12:05.618Z,73.90
2023-09-17T12:16:17.977Z,73.60
2023-09-17T12:20:53.090Z,72.83
2023-09-17T12:25:12.016Z,71.80
2023-09-17T12:29:23.564Z,71.75
2023-09-17T12:33:35.238Z,70.53
2023-09-17T12:37:46.816Z,69.20
2023-09-17T12:41:58.484Z,69.56
2023-09-17T12:46:10.096Z,68.89
2023-09-17T12:50:21.866Z,67.93
2023-09-17T12:54:33.721Z,66.79
2023-09-17T12:58:50.216Z,66.83
2023-09-17T13:03:16.086Z,66.66
2023-09-17T13:07:30.811Z,67.13
2023-09-17T13:11:42.420Z,67.58
2023-09-17T13:15:55.380Z,67.41
2023-09-17T13:20:08.174Z,66.13
2023-09-17T13:24:20.531Z,66.86
2023-09-17T13:28:32.158Z,65.31
2023-09-17T13:32:43.776Z,64.84
2023-09-17T13:36:57.690Z,64.71
2023-09-17T13:41:09.435Z,65.63
2023-09-17T13:45:21.357Z,65.34
2023-09-17T13:49:32.912Z,62.32
2023-09-17T13:53:44.596Z,63.81
2023-09-17T13:57:56.232Z,63.14
2023-09-17T14:02:08.018Z,65.00
2023-09-17T14:06:19.568Z,66.03
2023-09-17T14:10:31.142Z,67.44
2023-09-17T14:14:42.690Z,68.04
2023-09-17T14:18:54.388Z,68.19
2023-09-17T14:23:06.158Z,68.67
2023-09-17T14:27:17.729Z,68.27
2023-09-17T14:31:29.286Z,68.51
2023-09-17T14:35:40.820Z,69.19
2023-09-17T14:39:52.455Z,70.68
2023-09-17T14:44:04.073Z,70.46
2023-09-17T14:48:15.687Z,70.90
2023-09-17T14:52:27.243Z,71.07
2023-09-17T14:56:38.802Z,70.19
2023-09-17T15:00:51.298Z,70.28
2023-09-17T15:05:03.680Z,70.41
2023-09-17T15:09:15.266Z,69.71
2023-09-17T15:13:27.270Z,70.38
2023-09-17T15:17:38.922Z,69.77
2023-09-17T15:21:50.557Z,69.18
2023-09-17T15:26:02.146Z,70.24
2023-09-17T15:30:14.331Z,69.32
2023-09-17T15:34:28.194Z,68.12
2023-09-17T15:38:39.889Z,67.49
2023-09-17T15:42:51.563Z,68.68
2023-09-17T15:47:04.606Z,68.80
2023-09-17T15:51:16.354Z,69.05
2023-09-17T15:55:27.896Z,70.49
2023-09-17T15:59:39.493Z,71.10
2023-09-17T16:03:51.352Z,73.83
2023-09-17T16:08:03.336Z,73.23
2023-09-17T16:12:15.521Z,73.95
2023-09-17T16:16:27.190Z,74.73
2023-09-17T16:20:39.662Z,73.96
2023-09-17T16:24:51.286Z,74.24
2023-09-17T16:29:02.879Z,75.38
2023-09-17T16:33:14.635Z,76.59
2023-09-17T16:37:26.587Z,81.03
2023-09-17T16:41:38.281Z,80.22
2023-09-17T16:45:49.860Z,79.63
2023-09-17T16:50:01.932Z,79.91
2023-09-17T16:54:14.144Z,83.27
2023-09-17T16:58:25.700Z,89.53
2023-09-17T17:02:37.333Z,91.35
2023-09-17T17:06:49.048Z,92.46
2023-09-17T17:11:00.709Z,94.03
2023-09-17T17:15:12.324Z,96.39
2023-09-17T17:19:23.866Z,98.78
2023-09-17T17:23:36.276Z,100.00
2023-09-17T17:27:49.424Z,100.00
2023-09-17T17:32:00.978Z,100.00
2023-09-17T17:36:12.580Z,100.00
2023-09-17T17:40:26.567Z,100.00
2023-09-17T17:44:38.174Z,100.00
2023-09-17T17:48:51.166Z,100.00
2023-09-17T17:53:02.868Z,100.00
2023-09-17T17:57:15.700Z,100.00
2023-09-17T18:01:27.625Z,100.00
2023-09-17T18:05:39.706Z,100.00
2023-09-17T18:09:52.510Z,100.00
2023-09-17T18:14:04.239Z,100.00
2023-09-17T18:18:16.751Z,100.00
2023-09-17T18:22:28.587Z,100.00
2023-09-17T18:26:40.145Z,100.00
2023-09-17T18:30:54.983Z,100.00
2023-09-17T18:35:06.765Z,100.00
2023-09-17T18:39:20.203Z,100.00
2023-09-17T18:43:31.853Z,100.00
2023-09-17T18:47:44.210Z,100.00
2023-09-17T18:51:55.906Z,100.00
2023-09-17T18:56:07.715Z,100.00
2023-09-17T19:00:19.528Z,100.00
2023-09-17T19:04:31.278Z,100.00
2023-09-17T19:08:42.988Z,100.00
2023-09-17T19:12:57.847Z,100.00
2023-09-17T19:17:09.605Z,100.00
2023-09-17T19:21:21.238Z,100.00
2023-09-17T19:25:33.962Z,100.00
2023-09-17T19:29:45.556Z,100.00
2023-09-17T19:33:57.160Z,100.00
2023-09-17T19:38:08.811Z,100.00
2023-09-17T19:42:21.504Z,100.00
2023-09-17T19:46:33.238Z,100.00
2023-09-17T19:50:46.043Z,100.00
2023-09-17T19:54:57.752Z,100.00
2023-09-17T19:59:10.075Z,100.00
2023-09-17T20:03:24.582Z,100.00
2023-09-17T20:07:38.132Z,100.00
2023-09-17T20:11:49.825Z,100.00
2023-09-17T20:16:01.630Z,100.00
2023-09-17T20:20:13.678Z,100.00
2023-09-17T20:24:25.456Z,100.00
2023-09-17T20:28:38.529Z,100.00
2023-09-17T20:32:50.199Z,100.00
2023-09-17T20:37:03.742Z,100.00
2023-09-17T20:41:15.509Z,100.00
2023-09-17T20:45:27.205Z,100.00
2023-09-17T20:49:38.809Z,100.00
2023-09-17T20:53:51.141Z,100.00
2023-09-17T20:58:03.038Z,100.00
2023-09-17T21:02:14.716Z,100.00
2023-09-17T21:06:26.406Z,100.00
2023-09-17T21:10:37.946Z,100.00
2023-09-17T21:14:50.566Z,100.00
2023-09-17T21:19:02.109Z,100.00
2023-09-17T21:23:13.816Z,100.00
2023-09-17T21:27:29.105Z,100.00
